createdAt,value
2022-11-30T00:01:15.551Z,5.22
2022-11-30T00:03:49.603Z,5.47
2022-11-30T00:06:24.036Z,7.25
2022-11-30T00:08:59.433Z,5.57
2022-11-30T00:11:32.858Z,9.10
2022-11-30T00:14:05.956Z,5.22
2022-11-30T00:16:39.744Z,5.70
2022-11-30T00:19:15.409Z,5.30
2022-11-30T00:21:49.444Z,7.18
2022-11-30T00:24:23.849Z,5.78
2022-11-30T00:26:56.763Z,5.22
2022-11-30T00:29:29.900Z,5.45
2022-11-30T00:32:03.230Z,5.88
2022-11-30T00:34:36.104Z,4.78
2022-11-30T00:37:10.139Z,5.00
2022-11-30T00:39:44.505Z,5.38
2022-11-30T00:42:17.662Z,6.10
2022-11-30T00:44:50.566Z,6.35
2022-11-30T00:47:23.660Z,5.15
2022-11-30T00:49:56.507Z,5.45
2022-11-30T00:52:30.716Z,6.75
2022-11-30T00:55:05.533Z,4.80
2022-11-30T00:57:38.757Z,4.70
2022-11-30T01:00:12.993Z,5.10
2022-11-30T01:02:46.312Z,4.30
2022-11-30T01:05:19.368Z,5.20
2022-11-30T01:07:53.029Z,5.55
2022-11-30T01:10:27.567Z,3.80
2022-11-30T01:13:00.733Z,5.07
2022-11-30T01:15:37.679Z,4.82
2022-11-30T01:18:11.419Z,4.90
2022-11-30T01:20:44.754Z,5.03
2022-11-30T01:23:18.011Z,4.13
2022-11-30T01:26:02.639Z,4.28
2022-11-30T01:28:36.804Z,4.88
2022-11-30T01:31:11.881Z,4.78
2022-11-30T01:33:45.149Z,4.50
2022-11-30T01:36:19.724Z,4.22
2022-11-30T01:38:55.102Z,6.28
2022-11-30T01:41:30.812Z,5.38
2022-11-30T01:44:37.231Z,5.80
2022-11-30T01:47:13.112Z,4.47
2022-11-30T01:49:49.655Z,5.15
2022-11-30T01:52:28.033Z,4.80
2022-11-30T01:55:09.738Z,5.72
2022-11-30T01:57:48.703Z,5.50
2022-11-30T02:00:22.700Z,5.70
2022-11-30T02:03:02.113Z,4.72
2022-11-30T02:05:39.819Z,7.13
2022-11-30T02:08:13.578Z,5.15
2022-11-30T02:10:51.106Z,5.43
2022-11-30T02:13:56.852Z,5.32
2022-11-30T02:16:41.285Z,5.25
2022-11-30T02:19:42.482Z,5.05
2022-11-30T02:22:28.143Z,6.40
2022-11-30T02:25:09.724Z,6.13
2022-11-30T02:27:59.529Z,6.28
2022-11-30T02:30:37.094Z,6.28
2022-11-30T02:33:13.550Z,6.22
2022-11-30T02:35:54.790Z,6.55
2022-11-30T02:38:29.760Z,6.20
2022-11-30T02:41:03.941Z,7.93
2022-11-30T02:43:37.565Z,5.47
2022-11-30T02:46:17.905Z,5.25
2022-11-30T02:48:58.034Z,8.45
2022-11-30T02:51:35.322Z,5.43
2022-11-30T02:54:08.491Z,5.95
2022-11-30T02:56:41.389Z,5.07
2022-11-30T02:59:14.584Z,5.72
2022-11-30T03:01:49.061Z,6.82
2022-11-30T03:04:22.097Z,6.30
2022-11-30T03:06:55.052Z,6.78
2022-11-30T03:09:28.059Z,5.78
2022-11-30T03:12:01.222Z,6.03
2022-11-30T03:14:34.598Z,6.43
2022-11-30T03:17:10.106Z,6.68
2022-11-30T03:19:43.366Z,6.00
2022-11-30T03:22:16.785Z,5.75
2022-11-30T03:24:50.355Z,7.28
2022-11-30T03:27:24.055Z,6.60
2022-11-30T03:29:57.031Z,6.65
2022-11-30T03:32:31.945Z,7.90
2022-11-30T03:35:05.392Z,6.43
2022-11-30T03:37:38.312Z,5.85
2022-11-30T03:40:12.843Z,6.45
2022-11-30T03:42:46.182Z,6.50
2022-11-30T03:45:19.319Z,7.88
2022-11-30T03:47:53.888Z,7.60
2022-11-30T03:50:27.019Z,8.98
2022-11-30T03:52:59.972Z,10.77
2022-11-30T03:55:34.238Z,7.63
2022-11-30T03:58:07.317Z,8.07
2022-11-30T04:00:41.896Z,6.53
2022-11-30T04:03:16.998Z,6.60
2022-11-30T04:05:50.163Z,7.45
2022-11-30T04:08:23.367Z,6.82
2022-11-30T04:10:58.067Z,7.05
2022-11-30T04:13:31.845Z,8.10
2022-11-30T04:16:06.559Z,6.72
2022-11-30T04:18:41.588Z,8.82
2022-11-30T04:21:14.865Z,10.15
2022-11-30T04:23:47.741Z,6.50
2022-11-30T04:26:21.086Z,6.97
2022-11-30T04:28:53.972Z,7.90
2022-11-30T04:31:26.974Z,7.43
2022-11-30T04:34:01.538Z,8.80
2022-11-30T04:36:34.786Z,8.10
2022-11-30T04:39:07.713Z,7.38
2022-11-30T04:41:41.250Z,8.95
2022-11-30T04:44:14.201Z,8.07
2022-11-30T04:46:47.195Z,6.82
2022-11-30T04:49:21.445Z,7.60
2022-11-30T04:51:54.653Z,7.57
2022-11-30T04:54:27.843Z,7.45
2022-11-30T04:57:02.993Z,6.32
2022-11-30T04:59:36.113Z,7.05
2022-11-30T05:02:09.501Z,8.52
2022-11-30T05:04:43.892Z,7.80
2022-11-30T05:07:17.190Z,6.38
2022-11-30T05:09:50.608Z,7.20
2022-11-30T05:12:23.736Z,7.32
2022-11-30T05:14:56.716Z,8.55
2022-11-30T05:17:29.585Z,7.47
2022-11-30T05:20:04.080Z,8.68
2022-11-30T05:22:37.186Z,7.63
2022-11-30T05:25:10.760Z,7.30
2022-11-30T05:27:43.831Z,7.43
2022-11-30T05:30:17.282Z,8.52
2022-11-30T05:32:50.428Z,6.72
2022-11-30T05:35:25.116Z,7.18
2022-11-30T05:37:58.284Z,6.97
2022-11-30T05:40:32.758Z,10.77
2022-11-30T05:43:06.209Z,7.32
2022-11-30T05:45:39.795Z,9.48
2022-11-30T05:48:13.095Z,8.02
2022-11-30T05:50:47.371Z,8.07
2022-11-30T05:53:23.399Z,8.65
2022-11-30T05:55:56.311Z,9.55
2022-11-30T05:58:29.709Z,8.18
2022-11-30T06:01:02.902Z,7.60
2022-11-30T06:03:37.019Z,8.40
2022-11-30T06:06:11.483Z,8.95
2022-11-30T06:08:44.495Z,8.43
2022-11-30T06:11:17.903Z,8.80
2022-11-30T06:13:53.475Z,8.18
2022-11-30T06:16:26.671Z,8.75
2022-11-30T06:19:00.788Z,9.57
2022-11-30T06:21:35.601Z,9.00
2022-11-30T06:24:10.226Z,9.27
2022-11-30T06:26:43.080Z,10.10
2022-11-30T06:29:16.345Z,11.45
2022-11-30T06:31:49.354Z,12.50
2022-11-30T06:34:22.657Z,11.10
2022-11-30T06:36:58.632Z,13.38
2022-11-30T06:40:04.275Z,13.27
2022-11-30T06:42:25.259Z,14.25
2022-11-30T06:44:58.280Z,16.50
2022-11-30T06:47:31.299Z,15.45
2022-11-30T06:50:04.710Z,17.05
2022-11-30T06:52:39.518Z,17.60
2022-11-30T06:55:12.490Z,17.10
2022-11-30T06:57:45.883Z,16.08
2022-11-30T07:00:19.394Z,16.98
2022-11-30T07:02:52.319Z,17.92
2022-11-30T07:05:25.665Z,18.75
2022-11-30T07:08:00.210Z,18.15
2022-11-30T07:10:33.419Z,18.75
2022-11-30T07:13:06.476Z,18.42
2022-11-30T07:15:40.036Z,18.15
2022-11-30T07:18:13.330Z,19.42
2022-11-30T07:20:46.590Z,22.30
2022-11-30T07:23:38.123Z,20.00
2022-11-30T07:26:11.298Z,17.35
2022-11-30T07:28:46.193Z,18.58
2022-11-30T07:31:21.569Z,18.20
2022-11-30T07:33:54.919Z,21.15
2022-11-30T07:36:31.331Z,18.00
2022-11-30T07:39:06.209Z,18.58
2022-11-30T07:41:39.452Z,18.55
2022-11-30T07:44:12.951Z,20.35
2022-11-30T07:46:45.839Z,18.20
2022-11-30T07:49:18.941Z,18.50
2022-11-30T07:51:52.007Z,21.13
2022-11-30T07:54:26.217Z,19.20
2022-11-30T07:56:59.094Z,20.40
2022-11-30T07:59:31.976Z,17.95
2022-11-30T08:02:05.420Z,18.92
2022-11-30T08:04:38.461Z,19.05
2022-11-30T08:07:11.400Z,19.35
2022-11-30T08:09:46.247Z,20.73
2022-11-30T08:12:19.188Z,20.75
2022-11-30T08:15:18.743Z,21.92
2022-11-30T08:17:44.931Z,23.88
2022-11-30T08:20:18.209Z,25.15
2022-11-30T08:22:52.911Z,24.08
2022-11-30T08:25:27.192Z,24.95
2022-11-30T08:28:00.313Z,24.05
2022-11-30T08:30:33.322Z,25.20
2022-11-30T08:33:06.512Z,24.65
2022-11-30T08:35:39.341Z,24.80
2022-11-30T08:38:12.484Z,23.77
2022-11-30T08:40:46.723Z,22.70
2022-11-30T08:43:19.600Z,25.08
2022-11-30T08:45:54.543Z,24.65
2022-11-30T08:48:30.002Z,23.90
2022-11-30T08:51:03.687Z,23.92
2022-11-30T08:53:36.844Z,22.25
2022-11-30T08:56:14.056Z,25.08
2022-11-30T08:58:47.991Z,23.38
2022-11-30T09:01:22.560Z,25.92
2022-11-30T09:03:57.279Z,22.13
2022-11-30T09:06:31.867Z,23.77
2022-11-30T09:09:04.945Z,22.65
2022-11-30T09:11:39.252Z,23.40
2022-11-30T09:14:12.280Z,23.70
2022-11-30T09:16:45.125Z,22.63
2022-11-30T09:19:17.948Z,25.10
2022-11-30T09:21:52.115Z,23.77
2022-11-30T09:24:25.542Z,23.83
2022-11-30T09:26:59.801Z,20.60
2022-11-30T09:29:33.554Z,20.92
2022-11-30T09:32:10.425Z,18.35
2022-11-30T09:34:53.404Z,21.60
2022-11-30T09:37:26.426Z,19.50
2022-11-30T09:40:00.380Z,20.67
2022-11-30T09:42:47.139Z,20.88
2022-11-30T09:45:24.884Z,17.98
2022-11-30T09:48:18.801Z,18.77
2022-11-30T09:50:52.621Z,18.15
2022-11-30T09:53:30.087Z,16.25
2022-11-30T09:56:04.330Z,17.88
2022-11-30T09:58:49.091Z,14.93
2022-11-30T10:01:23.095Z,13.50
2022-11-30T10:03:58.151Z,15.82
2022-11-30T10:06:42.563Z,16.15
2022-11-30T10:09:30.863Z,13.32
2022-11-30T10:12:10.484Z,13.15
2022-11-30T10:15:16.678Z,13.20
2022-11-30T10:17:56.742Z,11.60
2022-11-30T10:20:53.054Z,11.35
2022-11-30T10:23:42.367Z,10.65
2022-11-30T10:26:17.733Z,10.70
2022-11-30T10:28:52.900Z,9.85
2022-11-30T10:31:34.456Z,10.35
2022-11-30T10:34:21.258Z,9.02
2022-11-30T10:37:04.742Z,9.38
2022-11-30T10:39:53.960Z,8.48
2022-11-30T10:42:33.916Z,7.68
2022-11-30T10:45:11.646Z,7.32
2022-11-30T10:47:51.438Z,7.68
2022-11-30T10:50:28.352Z,7.75
2022-11-30T10:53:02.465Z,7.22
2022-11-30T10:55:39.987Z,6.68
2022-11-30T10:58:20.942Z,6.15
2022-11-30T11:01:04.692Z,5.63
2022-11-30T11:03:39.309Z,5.90
2022-11-30T11:06:19.765Z,6.60
2022-11-30T11:08:52.637Z,5.60
2022-11-30T11:11:32.606Z,6.75
2022-11-30T11:14:20.698Z,7.50
2022-11-30T11:16:57.036Z,5.90
2022-11-30T11:19:37.524Z,5.88
2022-11-30T11:22:18.610Z,6.70
2022-11-30T11:24:54.494Z,6.15
2022-11-30T11:27:29.676Z,6.35
2022-11-30T11:30:07.927Z,6.57
2022-11-30T11:32:40.968Z,6.45
2022-11-30T11:35:37.470Z,6.82
2022-11-30T11:38:20.365Z,6.45
2022-11-30T11:40:55.844Z,6.35
2022-11-30T11:43:31.136Z,4.72
2022-11-30T11:46:12.744Z,7.15
2022-11-30T11:48:57.615Z,5.38
2022-11-30T11:51:33.765Z,6.82
2022-11-30T11:54:23.970Z,5.35
2022-11-30T11:56:57.771Z,5.05
2022-11-30T11:59:41.866Z,5.45
2022-11-30T12:02:28.741Z,6.93
2022-11-30T12:05:08.040Z,5.90
2022-11-30T12:07:47.863Z,7.07
2022-11-30T12:10:51.312Z,6.22
2022-11-30T12:13:23.035Z,6.28
2022-11-30T12:16:05.598Z,7.13
2022-11-30T12:18:50.759Z,6.35
2022-11-30T12:21:37.246Z,6.95
2022-11-30T12:24:35.146Z,7.00
2022-11-30T12:27:17.691Z,8.48
2022-11-30T12:30:02.324Z,7.53
2022-11-30T12:32:50.094Z,6.82
2022-11-30T12:35:35.315Z,8.70
2022-11-30T12:38:19.152Z,7.50
2022-11-30T12:41:01.679Z,10.15
2022-11-30T12:43:44.162Z,11.02
2022-11-30T12:46:24.328Z,11.02
2022-11-30T12:49:13.395Z,10.98
2022-11-30T12:51:53.430Z,11.82
2022-11-30T12:54:35.043Z,14.23
2022-11-30T12:57:17.212Z,12.30
2022-11-30T13:00:03.014Z,14.55
2022-11-30T13:03:12.216Z,18.33
2022-11-30T13:05:50.316Z,17.83
2022-11-30T13:08:28.737Z,13.45
2022-11-30T13:11:07.300Z,15.00
2022-11-30T13:13:50.144Z,14.65
2022-11-30T13:16:25.907Z,16.13
2022-11-30T13:19:02.962Z,16.52
2022-11-30T13:21:42.292Z,15.20
2022-11-30T13:24:21.409Z,17.00
2022-11-30T13:27:00.500Z,16.45
2022-11-30T13:30:13.457Z,15.30
2022-11-30T13:32:57.816Z,16.23
2022-11-30T13:35:53.567Z,18.17
2022-11-30T13:38:42.058Z,15.98
2022-11-30T13:41:21.843Z,17.60
2022-11-30T13:43:54.681Z,14.93
2022-11-30T13:46:28.941Z,17.42
2022-11-30T13:49:19.092Z,16.27
2022-11-30T13:52:19.989Z,12.98
2022-11-30T13:54:46.656Z,12.55
2022-11-30T13:57:55.454Z,12.95
2022-11-30T14:01:00.967Z,13.05
2022-11-30T14:03:35.330Z,12.05
2022-11-30T14:06:46.627Z,15.07
2022-11-30T14:10:09.462Z,12.97
2022-11-30T14:12:58.699Z,13.07
2022-11-30T14:15:53.398Z,15.05
2022-11-30T14:18:34.476Z,11.43
2022-11-30T14:21:17.934Z,12.33
2022-11-30T14:23:58.026Z,11.65
2022-11-30T14:26:37.192Z,14.13
2022-11-30T14:29:18.780Z,13.75
2022-11-30T14:31:57.355Z,10.95
2022-11-30T14:34:33.885Z,12.98
2022-11-30T14:37:17.229Z,11.23
2022-11-30T14:39:53.702Z,11.57
2022-11-30T14:42:30.125Z,10.63
2022-11-30T14:45:03.312Z,12.95
2022-11-30T14:47:37.209Z,13.45
2022-11-30T14:50:23.021Z,11.82
2022-11-30T14:53:21.386Z,10.82
2022-11-30T14:56:00.003Z,10.93
2022-11-30T14:58:41.272Z,13.10
2022-11-30T15:01:20.004Z,12.07
2022-11-30T15:03:55.538Z,11.52
2022-11-30T15:06:32.309Z,11.40
2022-11-30T15:09:05.287Z,14.18
2022-11-30T15:11:42.380Z,12.18
2022-11-30T15:14:17.452Z,12.23
2022-11-30T15:16:53.222Z,12.20
2022-11-30T15:19:28.372Z,9.75
2022-11-30T15:22:01.822Z,10.23
2022-11-30T15:24:34.769Z,13.43
2022-11-30T15:27:11.425Z,13.10
2022-11-30T15:29:51.313Z,10.32
2022-11-30T15:32:26.298Z,9.80
2022-11-30T15:35:00.961Z,10.52
2022-11-30T15:37:38.790Z,9.57
2022-11-30T15:40:17.183Z,11.70
2022-11-30T15:42:51.615Z,9.82
2022-11-30T15:45:28.402Z,12.98
2022-11-30T15:48:02.646Z,10.85
2022-11-30T15:50:41.161Z,10.43
2022-11-30T15:53:34.722Z,10.45
2022-11-30T15:56:09.099Z,11.20
2022-11-30T15:58:46.536Z,10.80
2022-11-30T16:01:24.722Z,10.43
2022-11-30T16:04:06.189Z,12.40
2022-11-30T16:06:47.185Z,13.10
2022-11-30T16:09:23.282Z,13.80
2022-11-30T16:11:58.864Z,12.10
2022-11-30T16:14:31.737Z,12.13
2022-11-30T16:17:09.113Z,12.25
2022-11-30T16:19:42.351Z,13.23
2022-11-30T16:22:16.675Z,13.65
2022-11-30T16:24:49.530Z,13.05
2022-11-30T16:27:22.652Z,11.65
2022-11-30T16:29:56.009Z,11.98
2022-11-30T16:32:30.393Z,10.43
2022-11-30T16:35:03.247Z,12.88
2022-11-30T16:37:36.260Z,10.90
2022-11-30T16:40:10.056Z,11.82
2022-11-30T16:42:43.085Z,11.63
2022-11-30T16:45:19.404Z,12.02
2022-11-30T16:47:53.939Z,12.00
2022-11-30T16:50:26.835Z,11.38
2022-11-30T16:53:00.468Z,13.65
2022-11-30T16:55:37.727Z,15.23
2022-11-30T16:58:10.907Z,14.50
2022-11-30T17:00:43.968Z,16.40
2022-11-30T17:03:22.501Z,17.02
2022-11-30T17:05:55.321Z,16.70
2022-11-30T17:08:28.522Z,17.02
2022-11-30T17:11:01.984Z,19.02
2022-11-30T17:13:34.776Z,17.30
2022-11-30T17:16:10.366Z,19.35
2022-11-30T17:18:44.611Z,17.75
2022-11-30T17:21:20.562Z,18.70
2022-11-30T17:23:53.448Z,16.88
2022-11-30T17:26:27.343Z,15.07
2022-11-30T17:29:00.284Z,15.75
2022-11-30T17:31:33.867Z,16.58
2022-11-30T17:34:08.591Z,16.27
2022-11-30T17:36:41.450Z,15.88
2022-11-30T17:39:14.279Z,16.98
2022-11-30T17:41:47.208Z,15.75
2022-11-30T17:44:20.012Z,17.52
2022-11-30T17:46:52.973Z,13.90
2022-11-30T17:49:27.171Z,13.70
2022-11-30T17:52:00.177Z,16.55
2022-11-30T17:54:33.097Z,14.70
2022-11-30T17:57:05.924Z,14.80
2022-11-30T17:59:38.735Z,17.02
2022-11-30T18:02:12.597Z,14.77
2022-11-30T18:04:47.107Z,16.70
2022-11-30T18:07:20.276Z,16.10
2022-11-30T18:09:53.212Z,16.33
2022-11-30T18:12:26.089Z,16.33
2022-11-30T18:14:58.990Z,18.50
2022-11-30T18:17:32.154Z,17.48
2022-11-30T18:20:07.900Z,16.85
2022-11-30T18:22:40.860Z,15.60
2022-11-30T18:25:15.532Z,19.20
2022-11-30T18:27:48.450Z,17.60
2022-11-30T18:30:21.626Z,16.60
2022-11-30T18:32:54.465Z,17.50
2022-11-30T18:35:28.760Z,18.55
2022-11-30T18:38:01.628Z,18.98
2022-11-30T18:40:34.396Z,17.33
2022-11-30T18:43:07.263Z,17.40
2022-11-30T18:45:40.142Z,15.68
2022-11-30T18:48:13.016Z,18.38
2022-11-30T18:50:47.202Z,18.33
2022-11-30T18:53:19.981Z,20.27
2022-11-30T18:55:52.860Z,18.75
2022-11-30T18:58:25.919Z,16.35
2022-11-30T19:01:07.949Z,18.92
2022-11-30T19:03:41.413Z,19.70
2022-11-30T19:06:38.765Z,19.30
2022-11-30T19:09:13.797Z,18.92
2022-11-30T19:11:47.063Z,21.70
2022-11-30T19:14:20.125Z,18.58
2022-11-30T19:16:53.186Z,18.13
2022-11-30T19:19:28.105Z,20.98
2022-11-30T19:22:02.626Z,20.50
2022-11-30T19:24:36.523Z,20.45
2022-11-30T19:27:09.460Z,19.33
2022-11-30T19:29:42.369Z,16.35
2022-11-30T19:32:15.206Z,18.95
2022-11-30T19:34:51.108Z,18.77
2022-11-30T19:37:25.706Z,18.52
2022-11-30T19:39:58.623Z,17.90
2022-11-30T19:42:32.259Z,17.90
2022-11-30T19:45:10.811Z,16.90
2022-11-30T19:47:43.781Z,19.95
2022-11-30T19:50:16.747Z,20.02
2022-11-30T19:52:51.238Z,17.27
2022-11-30T19:55:26.286Z,18.17
2022-11-30T19:57:59.168Z,15.63
2022-11-30T20:00:32.305Z,15.95
2022-11-30T20:03:09.753Z,17.75
2022-11-30T20:05:50.741Z,17.55
2022-11-30T20:08:25.203Z,14.57
2022-11-30T20:10:58.427Z,15.73
2022-11-30T20:13:34.475Z,16.85
2022-11-30T20:16:09.649Z,17.23
2022-11-30T20:18:46.245Z,17.25
2022-11-30T20:21:28.356Z,18.42
2022-11-30T20:24:14.025Z,19.00
2022-11-30T20:26:47.091Z,16.13
2022-11-30T20:29:19.867Z,15.40
2022-11-30T20:31:53.008Z,15.35
2022-11-30T20:34:33.998Z,14.98
2022-11-30T20:37:07.577Z,16.08
2022-11-30T20:39:45.663Z,16.88
2022-11-30T20:42:19.296Z,15.55
2022-11-30T20:44:52.160Z,14.77
2022-11-30T20:47:25.163Z,13.90
2022-11-30T20:49:58.505Z,14.75
2022-11-30T20:52:31.428Z,15.82
2022-11-30T20:55:06.051Z,14.32
2022-11-30T20:57:38.890Z,13.77
2022-11-30T21:00:13.471Z,14.60
2022-11-30T21:02:46.451Z,14.70
2022-11-30T21:05:19.948Z,15.02
2022-11-30T21:07:52.988Z,15.68
2022-11-30T21:10:27.210Z,15.80
2022-11-30T21:13:00.070Z,14.73
2022-11-30T21:15:33.102Z,14.25
2022-11-30T21:18:06.629Z,13.57
2022-11-30T21:20:39.473Z,16.50
2022-11-30T21:23:12.281Z,15.45
2022-11-30T21:25:46.823Z,16.67
2022-11-30T21:28:20.418Z,16.05
2022-11-30T21:30:53.250Z,15.60
2022-11-30T21:33:26.249Z,15.40
2022-11-30T21:35:59.071Z,14.20
2022-11-30T21:38:31.931Z,14.98
2022-11-30T21:41:06.633Z,13.30
2022-11-30T21:43:39.692Z,14.30
2022-11-30T21:46:14.313Z,13.30
2022-11-30T21:48:49.505Z,13.13
2022-11-30T21:51:24.081Z,14.15
2022-11-30T21:53:58.860Z,14.18
2022-11-30T21:56:34.735Z,13.23
2022-11-30T21:59:09.414Z,15.63
2022-11-30T22:01:44.731Z,13.32
2022-11-30T22:04:17.664Z,14.48
2022-11-30T22:06:50.526Z,14.88
2022-11-30T22:09:23.395Z,15.30
2022-11-30T22:11:57.791Z,14.85
2022-11-30T22:14:30.609Z,13.70
2022-11-30T22:17:03.449Z,15.70
2022-11-30T22:19:36.305Z,13.68
2022-11-30T22:22:09.071Z,15.13
2022-11-30T22:24:41.916Z,15.55
2022-11-30T22:27:16.296Z,15.05
2022-11-30T22:29:50.930Z,15.90
2022-11-30T22:32:23.799Z,15.95
2022-11-30T22:34:56.667Z,15.20
2022-11-30T22:37:29.514Z,14.18
2022-11-30T22:40:02.467Z,16.30
2022-11-30T22:42:38.095Z,16.30
2022-11-30T22:45:11.486Z,21.42
2022-11-30T22:47:44.384Z,15.40
2022-11-30T22:50:17.485Z,14.73
2022-11-30T22:53:04.903Z,16.15
2022-11-30T22:55:37.998Z,15.77
2022-11-30T22:58:12.316Z,16.67
2022-11-30T23:00:45.260Z,17.20
2022-11-30T23:03:18.235Z,15.57
2022-11-30T23:05:51.184Z,15.60
2022-11-30T23:08:23.971Z,18.88
2022-11-30T23:10:58.312Z,13.98
2022-11-30T23:13:32.591Z,15.38
2022-11-30T23:16:06.329Z,15.65
2022-11-30T23:18:41.510Z,17.70
2022-11-30T23:21:16.870Z,17.30
2022-11-30T23:57:42.824Z,16.55
